createdAt,value
2019-01-23T00:01:21.910Z,15.37
2019-01-23T00:02:24.229Z,15.38
2019-01-23T00:03:26.164Z,15.38
2019-01-23T00:04:28.186Z,15.38
2019-01-23T00:05:30.145Z,15.37
2019-01-23T00:06:32.309Z,15.37
2019-01-23T00:07:34.273Z,15.37
2019-01-23T00:08:36.298Z,15.36
2019-01-23T00:09:38.259Z,15.37
2019-01-23T00:10:40.255Z,15.36
2019-01-23T00:11:42.204Z,15.37
2019-01-23T00:12:44.213Z,15.36
2019-01-23T00:13:46.166Z,15.37
2019-01-23T00:14:48.122Z,15.36
2019-01-23T00:15:50.183Z,15.36
2019-01-23T00:16:55.253Z,15.37
2019-01-23T00:17:57.280Z,15.35
2019-01-23T00:18:59.240Z,15.37
2019-01-23T00:20:01.207Z,15.36
2019-01-23T00:21:03.206Z,15.36
2019-01-23T00:22:05.176Z,15.36
2019-01-23T00:23:07.210Z,15.35
2019-01-23T00:24:09.161Z,15.35
2019-01-23T00:25:11.114Z,15.34
2019-01-23T00:26:14.666Z,15.36
2019-01-23T00:27:16.617Z,15.35
2019-01-23T00:28:18.570Z,15.34
2019-01-23T00:29:20.529Z,15.35
2019-01-23T00:30:23.740Z,15.35
2019-01-23T00:31:25.863Z,15.34
2019-01-23T00:32:28.335Z,15.34
2019-01-23T00:33:30.310Z,15.35
2019-01-23T00:34:32.332Z,15.35
2019-01-23T00:35:35.102Z,15.33
2019-01-23T00:36:37.158Z,15.33
2019-01-23T00:37:39.111Z,15.33
2019-01-23T00:38:41.057Z,15.34
2019-01-23T00:39:45.615Z,15.33
2019-01-23T00:40:47.562Z,15.33
2019-01-23T00:41:49.516Z,15.34
2019-01-23T00:42:51.523Z,15.33
2019-01-23T00:43:53.691Z,15.34
2019-01-23T00:44:55.909Z,15.35
2019-01-23T00:45:57.863Z,15.33
2019-01-23T00:46:59.851Z,15.33
2019-01-23T00:48:01.812Z,15.33
2019-01-23T00:49:04.169Z,15.34
2019-01-23T00:50:06.118Z,15.34
2019-01-23T00:51:10.425Z,15.34
2019-01-23T00:52:12.389Z,15.34
2019-01-23T00:53:14.717Z,15.34
2019-01-23T00:54:16.845Z,15.35
2019-01-23T00:55:18.953Z,15.34
2019-01-23T00:56:20.870Z,15.35
2019-01-23T00:57:22.846Z,15.36
2019-01-23T00:58:25.269Z,15.35
2019-01-23T00:59:27.237Z,15.35
2019-01-23T01:00:29.256Z,15.34
2019-01-23T01:01:31.205Z,15.35
2019-01-23T01:02:33.188Z,15.34
2019-01-23T01:03:35.220Z,15.34
2019-01-23T01:04:37.163Z,15.33
2019-01-23T01:05:39.113Z,15.34
2019-01-23T01:06:41.222Z,15.33
2019-01-23T01:07:43.210Z,15.33
2019-01-23T01:08:45.724Z,15.32
2019-01-23T01:09:47.665Z,15.33
2019-01-23T01:10:49.614Z,15.35
2019-01-23T01:11:51.550Z,15.33
2019-01-23T01:12:53.784Z,15.34
2019-01-23T01:13:56.044Z,15.34
2019-01-23T01:14:57.998Z,15.33
2019-01-23T01:15:59.946Z,15.34
2019-01-23T01:17:01.962Z,15.33
2019-01-23T01:18:03.928Z,15.33
2019-01-23T01:19:05.921Z,15.34
2019-01-23T01:20:07.866Z,15.34
2019-01-23T01:21:09.817Z,15.33
2019-01-23T01:22:13.860Z,15.33
2019-01-23T01:23:15.839Z,15.34
2019-01-23T01:24:17.782Z,15.33
2019-01-23T01:25:19.721Z,15.32
2019-01-23T01:26:21.796Z,15.32
2019-01-23T01:27:23.823Z,15.32
2019-01-23T01:28:25.772Z,15.33
2019-01-23T01:29:27.846Z,15.32
2019-01-23T01:30:29.809Z,15.33
2019-01-23T01:31:31.747Z,15.32
2019-01-23T01:32:33.691Z,15.31
2019-01-23T01:33:35.654Z,15.32
2019-01-23T01:34:37.612Z,15.31
2019-01-23T01:35:39.561Z,15.31
2019-01-23T01:36:41.516Z,15.32
2019-01-23T01:37:43.487Z,15.30
2019-01-23T01:38:45.650Z,15.31
2019-01-23T01:39:47.597Z,15.31
2019-01-23T01:40:49.525Z,15.31
2019-01-23T01:41:53.592Z,15.31
2019-01-23T01:42:55.541Z,15.32
2019-01-23T01:43:57.496Z,15.32
2019-01-23T01:44:59.450Z,15.32
2019-01-23T01:46:01.477Z,15.31
2019-01-23T01:47:03.426Z,15.33
2019-01-23T01:48:05.362Z,15.31
2019-01-23T01:49:07.332Z,15.32
2019-01-23T01:50:09.335Z,15.31
2019-01-23T01:51:11.286Z,15.33
2019-01-23T01:52:13.237Z,15.31
2019-01-23T01:53:15.195Z,15.31
2019-01-23T01:54:17.184Z,15.30
2019-01-23T01:55:19.141Z,15.31
2019-01-23T01:56:21.082Z,15.30
2019-01-23T01:57:23.031Z,15.30
2019-01-23T01:58:24.969Z,15.31
2019-01-23T01:59:26.949Z,15.30
2019-01-23T02:00:28.884Z,15.30
2019-01-23T02:01:30.837Z,15.30
2019-01-23T02:02:35.593Z,15.29
2019-01-23T02:03:37.527Z,15.30
2019-01-23T02:04:39.504Z,15.29
2019-01-23T02:05:41.450Z,15.30
2019-01-23T02:06:43.461Z,15.28
2019-01-23T02:07:45.438Z,15.29
2019-01-23T02:08:47.400Z,15.29
2019-01-23T02:09:49.385Z,15.28
2019-01-23T02:10:51.330Z,15.29
2019-01-23T02:11:54.815Z,15.28
2019-01-23T02:12:56.754Z,15.28
2019-01-23T02:13:58.844Z,15.28
2019-01-23T02:15:00.851Z,15.27
2019-01-23T02:16:02.789Z,15.28
2019-01-23T02:17:04.744Z,15.27
2019-01-23T02:18:06.694Z,15.27
2019-01-23T02:19:08.619Z,15.28
2019-01-23T02:20:10.676Z,15.27
2019-01-23T02:21:12.615Z,15.27
2019-01-23T02:22:14.544Z,15.27
2019-01-23T02:23:16.509Z,15.26
2019-01-23T02:24:18.449Z,15.26
2019-01-23T02:25:20.698Z,15.26
2019-01-23T02:26:22.670Z,15.26
2019-01-23T02:27:24.612Z,15.26
2019-01-23T02:28:26.567Z,15.26
2019-01-23T02:29:28.525Z,15.26
2019-01-23T02:30:30.509Z,15.26
2019-01-23T02:31:32.538Z,15.25
2019-01-23T02:32:34.564Z,15.26
2019-01-23T02:33:36.513Z,15.27
2019-01-23T02:34:38.505Z,15.26
2019-01-23T02:35:40.493Z,15.26
2019-01-23T02:36:42.446Z,15.26
2019-01-23T02:37:44.386Z,15.26
2019-01-23T02:38:46.321Z,15.27
2019-01-23T02:39:48.266Z,15.27
2019-01-23T02:40:50.322Z,15.27
2019-01-23T02:41:52.324Z,15.27
2019-01-23T02:42:54.282Z,15.26
2019-01-23T02:43:56.234Z,15.27
2019-01-23T02:44:58.185Z,15.29
2019-01-23T02:46:00.171Z,15.27
2019-01-23T02:47:02.110Z,15.28
2019-01-23T02:48:04.048Z,15.28
2019-01-23T02:49:05.996Z,15.28
2019-01-23T02:50:08.020Z,15.28
2019-01-23T02:51:10.073Z,15.28
2019-01-23T02:52:12.013Z,15.27
2019-01-23T02:53:13.970Z,15.28
2019-01-23T02:54:15.914Z,15.29
2019-01-23T02:55:17.851Z,15.28
2019-01-23T02:56:19.824Z,15.29
2019-01-23T02:57:21.826Z,15.28
2019-01-23T02:58:23.771Z,15.28
2019-01-23T02:59:25.716Z,15.29
2019-01-23T03:00:27.731Z,15.28
2019-01-23T03:01:29.775Z,15.27
2019-01-23T03:02:31.752Z,15.28
2019-01-23T03:03:33.776Z,15.27
2019-01-23T03:04:35.723Z,15.27
2019-01-23T03:05:37.738Z,15.28
2019-01-23T03:06:39.671Z,15.28
2019-01-23T03:07:41.624Z,15.28
2019-01-23T03:08:43.741Z,15.28
2019-01-23T03:09:45.754Z,15.28
2019-01-23T03:10:47.699Z,15.28
2019-01-23T03:11:49.753Z,15.27
2019-01-23T03:12:51.723Z,15.27
2019-01-23T03:13:53.745Z,15.28
2019-01-23T03:14:56.954Z,15.27
2019-01-23T03:15:58.967Z,15.29
2019-01-23T03:17:00.944Z,15.28
2019-01-23T03:18:02.899Z,15.28
2019-01-23T03:19:05.415Z,15.29
2019-01-23T03:20:07.375Z,15.29
2019-01-23T03:21:09.317Z,15.28
2019-01-23T03:22:12.207Z,15.29
2019-01-23T03:23:14.144Z,15.28
2019-01-23T03:24:16.100Z,15.28
2019-01-23T03:25:18.114Z,15.29
2019-01-23T03:26:23.041Z,15.29
2019-01-23T03:27:25.028Z,15.28
2019-01-23T03:28:27.354Z,15.29
2019-01-23T03:29:29.309Z,15.29
2019-01-23T03:30:31.261Z,15.30
2019-01-23T03:31:33.215Z,15.30
2019-01-23T03:32:35.178Z,15.30
2019-01-23T03:33:37.128Z,15.29
2019-01-23T03:34:39.079Z,15.30
2019-01-23T03:35:41.274Z,15.30
2019-01-23T03:36:43.235Z,15.30
2019-01-23T03:37:45.176Z,15.29
2019-01-23T03:38:47.131Z,15.30
2019-01-23T03:39:49.069Z,15.30
2019-01-23T03:40:50.991Z,15.30
2019-01-23T03:41:52.942Z,15.30
2019-01-23T03:42:54.913Z,15.29
2019-01-23T03:43:56.847Z,15.30
2019-01-23T03:44:58.776Z,15.30
2019-01-23T03:46:00.723Z,15.30
2019-01-23T03:47:02.655Z,15.30
2019-01-23T03:48:04.614Z,15.30
2019-01-23T03:49:06.642Z,15.30
2019-01-23T03:50:08.594Z,15.31
2019-01-23T03:51:10.551Z,15.31
2019-01-23T03:52:12.573Z,15.30
2019-01-23T03:53:14.532Z,15.31
2019-01-23T03:54:16.477Z,15.31
2019-01-23T03:55:18.438Z,15.30
2019-01-23T03:56:20.474Z,15.31
2019-01-23T03:57:22.499Z,15.30
2019-01-23T03:58:24.532Z,15.31
2019-01-23T03:59:32.129Z,15.30
2019-01-23T04:00:30.159Z,15.31
2019-01-23T04:01:32.285Z,15.30
2019-01-23T04:02:34.243Z,15.30
2019-01-23T04:03:36.210Z,15.30
2019-01-23T04:04:38.301Z,15.31
2019-01-23T04:05:40.313Z,15.30
2019-01-23T04:06:42.253Z,15.31
2019-01-23T04:07:44.189Z,15.31
2019-01-23T04:08:46.141Z,15.31
2019-01-23T04:09:48.081Z,15.30
2019-01-23T04:10:50.057Z,15.30
2019-01-23T04:11:52.071Z,15.30
2019-01-23T04:12:54.021Z,15.31
2019-01-23T04:13:56.130Z,15.31
2019-01-23T04:14:58.062Z,15.30
2019-01-23T04:16:00.009Z,15.29
2019-01-23T04:17:01.935Z,15.30
2019-01-23T04:18:03.893Z,15.29
2019-01-23T04:19:05.854Z,15.29
2019-01-23T04:20:07.868Z,15.30
2019-01-23T04:21:09.825Z,15.30
2019-01-23T04:22:11.855Z,15.30
2019-01-23T04:23:13.905Z,15.29
2019-01-23T04:24:15.839Z,15.29
2019-01-23T04:25:17.768Z,15.29
2019-01-23T04:26:19.720Z,15.29
2019-01-23T04:27:21.734Z,15.30
2019-01-23T04:28:23.703Z,15.29
2019-01-23T04:29:25.659Z,15.30
2019-01-23T04:30:27.669Z,15.29
2019-01-23T04:31:29.621Z,15.29
2019-01-23T04:32:31.688Z,15.30
2019-01-23T04:33:33.699Z,15.29
2019-01-23T04:34:35.785Z,15.29
2019-01-23T04:35:38.661Z,15.28
2019-01-23T04:36:40.615Z,15.29
2019-01-23T04:37:42.803Z,15.28
2019-01-23T04:38:44.909Z,15.28
2019-01-23T04:39:46.861Z,15.28
2019-01-23T04:40:48.795Z,15.29
2019-01-23T04:41:50.738Z,15.27
2019-01-23T04:42:52.669Z,15.27
2019-01-23T04:43:54.621Z,15.28
2019-01-23T04:44:56.566Z,15.27
2019-01-23T04:46:01.281Z,15.28
2019-01-23T04:47:03.234Z,15.28
2019-01-23T04:48:05.188Z,15.27
2019-01-23T04:49:08.242Z,15.27
2019-01-23T04:50:10.259Z,15.29
2019-01-23T04:51:19.239Z,15.27
2019-01-23T04:52:35.584Z,15.27
2019-01-23T04:53:41.090Z,15.28
2019-01-23T04:54:43.046Z,15.28
2019-01-23T04:55:45.012Z,15.28
2019-01-23T04:56:46.963Z,15.28
2019-01-23T04:57:48.915Z,15.27
2019-01-23T04:58:50.946Z,15.28
2019-01-23T04:59:52.892Z,15.25
2019-01-23T05:00:54.843Z,15.26
2019-01-23T05:01:56.792Z,15.26
2019-01-23T05:02:58.735Z,15.26
2019-01-23T05:04:00.674Z,15.26
2019-01-23T05:05:02.629Z,15.26
2019-01-23T05:06:04.577Z,15.26
2019-01-23T05:07:06.609Z,15.25
2019-01-23T05:08:10.926Z,15.26
2019-01-23T05:09:12.888Z,15.26
2019-01-23T05:10:14.899Z,15.26
2019-01-23T05:11:16.855Z,15.25
2019-01-23T05:12:18.824Z,15.25
2019-01-23T05:13:20.771Z,15.26
2019-01-23T05:14:22.748Z,15.25
2019-01-23T05:15:24.722Z,15.25
2019-01-23T05:16:26.742Z,15.25
2019-01-23T05:17:28.757Z,15.26
2019-01-23T05:18:30.933Z,15.25
2019-01-23T05:19:32.987Z,15.25
2019-01-23T05:20:34.929Z,15.25
2019-01-23T05:21:36.886Z,15.24
2019-01-23T05:22:38.833Z,15.24
2019-01-23T05:23:40.768Z,15.25
2019-01-23T05:24:42.746Z,15.26
2019-01-23T05:25:44.729Z,15.25
2019-01-23T05:26:46.676Z,15.26
2019-01-23T05:27:48.628Z,15.26
2019-01-23T05:28:50.587Z,15.26
2019-01-23T05:29:54.946Z,15.25
2019-01-23T05:30:56.258Z,15.25
2019-01-23T05:31:58.216Z,15.26
2019-01-23T05:33:00.246Z,15.26
2019-01-23T05:34:02.261Z,15.26
2019-01-23T05:35:04.245Z,15.25
2019-01-23T05:36:06.213Z,15.25
2019-01-23T05:37:08.245Z,15.25
2019-01-23T05:38:10.194Z,15.26
2019-01-23T05:39:12.155Z,15.27
2019-01-23T05:40:14.198Z,15.27
2019-01-23T05:41:16.149Z,15.26
2019-01-23T05:42:18.170Z,15.27
2019-01-23T05:43:20.198Z,15.26
2019-01-23T05:44:22.251Z,15.26
2019-01-23T05:45:24.214Z,15.27
2019-01-23T05:46:26.232Z,15.27
2019-01-23T05:47:28.161Z,15.27
2019-01-23T05:48:30.118Z,15.27
2019-01-23T05:49:32.258Z,15.25
2019-01-23T05:50:34.239Z,15.27
2019-01-23T05:51:36.168Z,15.27
2019-01-23T05:52:38.114Z,15.26
2019-01-23T05:53:40.138Z,15.27
2019-01-23T05:54:42.071Z,15.27
2019-01-23T05:55:44.066Z,15.26
2019-01-23T05:56:46.079Z,15.25
2019-01-23T05:57:48.085Z,15.24
2019-01-23T05:58:50.032Z,15.23
2019-01-23T05:59:52.032Z,15.25
2019-01-23T06:00:54.055Z,15.25
2019-01-23T06:01:56.073Z,15.25
2019-01-23T06:02:58.041Z,15.25
2019-01-23T06:04:00.077Z,15.27
2019-01-23T06:05:02.033Z,15.29
2019-01-23T06:06:04.026Z,15.29
2019-01-23T06:07:06.037Z,15.30
2019-01-23T06:08:07.994Z,15.32
2019-01-23T06:09:09.948Z,15.35
2019-01-23T06:10:11.978Z,15.37
2019-01-23T06:11:14.028Z,15.38
2019-01-23T06:12:16.046Z,15.41
2019-01-23T06:13:17.988Z,15.44
2019-01-23T06:14:19.945Z,15.45
2019-01-23T06:15:21.886Z,15.47
2019-01-23T06:16:24.809Z,15.48
2019-01-23T06:17:28.255Z,15.52
2019-01-23T06:18:30.261Z,15.53
2019-01-23T06:19:32.205Z,15.54
2019-01-23T06:20:34.154Z,15.54
2019-01-23T06:21:36.105Z,15.54
2019-01-23T06:22:39.262Z,15.54
2019-01-23T06:23:41.189Z,15.55
2019-01-23T06:24:43.148Z,15.55
2019-01-23T06:25:45.097Z,15.54
2019-01-23T06:26:47.072Z,15.53
2019-01-23T06:27:49.021Z,15.53
2019-01-23T06:28:52.586Z,15.52
2019-01-23T06:29:54.540Z,15.51
2019-01-23T06:30:56.479Z,15.49
2019-01-23T06:31:58.464Z,15.48
2019-01-23T06:33:00.408Z,15.47
2019-01-23T06:34:02.423Z,15.46
2019-01-23T06:35:04.371Z,15.45
2019-01-23T06:36:06.322Z,15.44
2019-01-23T06:37:08.289Z,15.43
2019-01-23T06:38:10.419Z,15.42
2019-01-23T06:39:12.413Z,15.41
2019-01-23T06:40:14.371Z,15.41
2019-01-23T06:41:16.298Z,15.39
2019-01-23T06:42:18.320Z,15.38
2019-01-23T06:43:21.652Z,15.36
2019-01-23T06:44:23.687Z,15.36
2019-01-23T06:45:25.643Z,15.34
2019-01-23T06:46:27.594Z,15.33
2019-01-23T06:47:29.559Z,15.30
2019-01-23T06:48:31.502Z,15.30
2019-01-23T06:49:33.460Z,15.28
2019-01-23T06:50:35.408Z,15.28
2019-01-23T06:51:37.411Z,15.27
2019-01-23T06:52:39.429Z,15.26
2019-01-23T06:53:41.409Z,15.24
2019-01-23T06:54:43.561Z,15.24
2019-01-23T06:55:45.520Z,15.21
2019-01-23T06:56:47.599Z,15.20
2019-01-23T06:57:49.759Z,15.19
2019-01-23T06:58:51.703Z,15.18
2019-01-23T06:59:53.649Z,15.16
2019-01-23T07:00:55.600Z,15.14
2019-01-23T07:01:57.613Z,15.13
2019-01-23T07:02:59.588Z,15.12
2019-01-23T07:04:01.553Z,15.10
2019-01-23T07:05:03.482Z,15.10
2019-01-23T07:06:05.431Z,15.09
2019-01-23T07:07:07.381Z,15.07
2019-01-23T07:08:09.367Z,15.06
2019-01-23T07:09:11.317Z,15.07
2019-01-23T07:10:13.331Z,15.05
2019-01-23T07:11:15.279Z,15.04
2019-01-23T07:12:17.222Z,15.03
2019-01-23T07:13:19.203Z,15.03
2019-01-23T07:14:21.143Z,15.00
2019-01-23T07:15:23.111Z,14.99
2019-01-23T07:16:25.065Z,14.98
2019-01-23T07:17:27.022Z,14.97
2019-01-23T07:18:29.015Z,14.96
2019-01-23T07:19:30.980Z,14.95
2019-01-23T07:20:32.941Z,14.95
2019-01-23T07:21:34.902Z,14.95
2019-01-23T07:22:36.945Z,14.94
2019-01-23T07:23:38.936Z,14.94
2019-01-23T07:24:41.011Z,14.94
2019-01-23T07:25:43.035Z,14.93
2019-01-23T07:26:45.009Z,14.92
2019-01-23T07:27:46.974Z,14.92
2019-01-23T07:28:49.387Z,14.91
2019-01-23T07:29:51.492Z,14.92
2019-01-23T07:30:53.441Z,14.91
2019-01-23T07:31:55.466Z,14.92
2019-01-23T07:32:57.424Z,14.91
2019-01-23T07:33:59.471Z,14.91
2019-01-23T07:35:01.442Z,14.90
2019-01-23T07:36:03.440Z,14.91
2019-01-23T07:37:05.410Z,14.90
2019-01-23T07:38:07.466Z,14.91
2019-01-23T07:39:09.548Z,14.90
2019-01-23T07:40:11.567Z,14.90
2019-01-23T07:41:13.523Z,14.91
2019-01-23T07:42:15.474Z,14.95
2019-01-23T07:43:17.437Z,14.97
2019-01-23T07:44:19.485Z,15.02
2019-01-23T07:45:21.444Z,15.08
2019-01-23T07:46:24.874Z,15.13
2019-01-23T07:47:26.828Z,15.19
2019-01-23T07:48:28.861Z,15.23
2019-01-23T07:49:30.844Z,15.29
2019-01-23T07:50:32.795Z,15.31
2019-01-23T07:51:34.883Z,15.36
2019-01-23T07:52:37.034Z,15.39
2019-01-23T07:53:39.088Z,15.41
2019-01-23T07:54:41.162Z,15.44
2019-01-23T07:55:43.241Z,15.46
2019-01-23T07:56:45.347Z,15.48
2019-01-23T07:57:47.299Z,15.49
2019-01-23T07:58:49.319Z,15.50
2019-01-23T07:59:51.300Z,15.52
2019-01-23T08:00:53.257Z,15.54
2019-01-23T08:01:55.223Z,15.55
2019-01-23T08:02:57.189Z,15.55
2019-01-23T08:03:59.147Z,15.56
2019-01-23T08:05:01.472Z,15.56
2019-01-23T08:06:03.500Z,15.56
2019-01-23T08:07:05.474Z,15.56
2019-01-23T08:08:09.769Z,15.56
2019-01-23T08:09:11.182Z,15.55
2019-01-23T08:10:13.176Z,15.53
2019-01-23T08:11:15.110Z,15.54
2019-01-23T08:12:17.080Z,15.51
2019-01-23T08:13:19.177Z,15.49
2019-01-23T08:14:21.355Z,15.49
2019-01-23T08:15:23.385Z,15.47
2019-01-23T08:16:25.530Z,15.46
2019-01-23T08:17:32.725Z,15.44
2019-01-23T08:18:33.348Z,15.42
2019-01-23T08:19:35.376Z,15.41
2019-01-23T08:20:37.329Z,15.39
2019-01-23T08:21:39.293Z,15.37
2019-01-23T08:22:41.507Z,15.37
2019-01-23T08:23:43.458Z,15.35
2019-01-23T08:24:45.468Z,15.35
2019-01-23T08:25:47.471Z,15.33
2019-01-23T08:26:49.439Z,15.30
2019-01-23T08:27:51.448Z,15.29
2019-01-23T08:28:53.400Z,15.27
2019-01-23T08:29:55.372Z,15.27
2019-01-23T08:30:57.353Z,15.25
2019-01-23T08:31:59.312Z,15.25
2019-01-23T08:33:01.258Z,15.24
2019-01-23T08:34:03.216Z,15.21
2019-01-23T08:35:05.167Z,15.21
2019-01-23T08:36:07.137Z,15.22
2019-01-23T08:37:09.084Z,15.19
2019-01-23T08:38:11.041Z,15.18
2019-01-23T08:39:13.003Z,15.16
2019-01-23T08:40:15.034Z,15.15
2019-01-23T08:41:17.111Z,15.14
2019-01-23T08:42:19.134Z,15.13
2019-01-23T08:43:21.248Z,15.13
2019-01-23T08:44:23.436Z,15.13
2019-01-23T08:45:25.536Z,15.11
2019-01-23T08:46:27.515Z,15.11
2019-01-23T08:47:29.548Z,15.10
2019-01-23T08:48:31.515Z,15.09
2019-01-23T08:49:33.477Z,15.09
2019-01-23T08:50:35.431Z,15.09
2019-01-23T08:51:37.375Z,15.07
2019-01-23T08:52:39.342Z,15.07
2019-01-23T08:53:41.372Z,15.06
2019-01-23T08:54:43.331Z,15.06
2019-01-23T08:55:45.311Z,15.07
2019-01-23T08:56:47.282Z,15.07
2019-01-23T08:57:49.281Z,15.09
2019-01-23T08:58:51.305Z,15.10
2019-01-23T08:59:53.241Z,15.11
2019-01-23T09:00:55.220Z,15.13
2019-01-23T09:01:57.158Z,15.15
2019-01-23T09:02:59.103Z,15.18
2019-01-23T09:04:01.078Z,15.19
2019-01-23T09:05:03.106Z,15.21
2019-01-23T09:06:05.164Z,15.24
2019-01-23T09:07:07.111Z,15.25
2019-01-23T09:08:09.048Z,15.28
2019-01-23T09:09:11.204Z,15.29
2019-01-23T09:10:13.346Z,15.30
2019-01-23T09:11:15.319Z,15.32
2019-01-23T09:12:17.331Z,15.33
2019-01-23T09:13:19.299Z,15.34
2019-01-23T09:14:21.388Z,15.35
2019-01-23T09:15:24.001Z,15.36
2019-01-23T09:16:26.063Z,15.37
2019-01-23T09:17:28.021Z,15.38
2019-01-23T09:18:29.986Z,15.39
2019-01-23T09:19:32.028Z,15.41
2019-01-23T09:20:33.997Z,15.40
2019-01-23T09:21:35.974Z,15.41
2019-01-23T09:22:37.955Z,15.41
2019-01-23T09:23:39.948Z,15.42
2019-01-23T09:24:41.899Z,15.42
2019-01-23T09:25:49.654Z,15.42
2019-01-23T09:26:47.572Z,15.41
2019-01-23T09:27:49.587Z,15.42
2019-01-23T09:28:51.539Z,15.41
2019-01-23T09:29:53.502Z,15.42
2019-01-23T09:30:55.456Z,15.42
2019-01-23T09:31:57.424Z,15.42
2019-01-23T09:32:59.394Z,15.41
2019-01-23T09:34:01.343Z,15.41
2019-01-23T09:35:03.285Z,15.39
2019-01-23T09:36:05.270Z,15.39
2019-01-23T09:37:07.326Z,15.40
2019-01-23T09:38:09.290Z,15.39
2019-01-23T09:39:11.262Z,15.38
2019-01-23T09:40:13.227Z,15.37
2019-01-23T09:41:17.280Z,15.38
2019-01-23T09:42:19.403Z,15.36
2019-01-23T09:43:21.361Z,15.35
2019-01-23T09:44:23.409Z,15.36
2019-01-23T09:45:25.355Z,15.36
2019-01-23T09:46:27.716Z,15.36
2019-01-23T09:47:32.185Z,15.35
2019-01-23T09:48:34.221Z,15.35
2019-01-23T09:49:36.184Z,15.35
2019-01-23T09:50:38.130Z,15.36
2019-01-23T09:51:40.071Z,15.35
2019-01-23T09:52:42.052Z,15.35
2019-01-23T09:53:44.080Z,15.36
2019-01-23T09:54:46.095Z,15.34
2019-01-23T09:55:50.354Z,15.34
2019-01-23T09:56:52.366Z,15.33
2019-01-23T09:57:55.952Z,15.34
2019-01-23T09:59:02.525Z,15.32
2019-01-23T10:00:01.692Z,15.31
2019-01-23T10:01:06.553Z,15.31
2019-01-23T10:02:07.334Z,15.31
2019-01-23T10:03:09.394Z,15.31
2019-01-23T10:04:11.352Z,15.33
2019-01-23T10:05:13.304Z,15.32
2019-01-23T10:06:15.336Z,15.31
2019-01-23T10:07:17.281Z,15.31
2019-01-23T10:08:19.269Z,15.30
2019-01-23T10:09:22.988Z,15.30
2019-01-23T10:10:24.960Z,15.31
2019-01-23T10:11:26.994Z,15.30
2019-01-23T10:12:29.047Z,15.30
2019-01-23T10:13:31.309Z,15.29
2019-01-23T10:14:33.269Z,15.28
2019-01-23T10:15:35.230Z,15.27
2019-01-23T10:16:37.199Z,15.27
2019-01-23T10:17:39.162Z,15.27
2019-01-23T10:18:41.166Z,15.28
2019-01-23T10:19:43.115Z,15.28
2019-01-23T10:20:45.315Z,15.27
2019-01-23T10:21:47.303Z,15.27
2019-01-23T10:22:49.303Z,15.28
2019-01-23T10:23:51.267Z,15.27
2019-01-23T10:24:53.296Z,15.25
2019-01-23T10:25:55.265Z,15.26
2019-01-23T10:26:58.996Z,15.26
2019-01-23T10:28:01.025Z,15.26
2019-01-23T10:29:03.175Z,15.25
2019-01-23T10:30:07.275Z,15.26
2019-01-23T10:31:09.238Z,15.27
2019-01-23T10:32:11.199Z,15.27
2019-01-23T10:33:13.138Z,15.27
2019-01-23T10:34:15.133Z,15.27
2019-01-23T10:35:17.119Z,15.26
2019-01-23T10:36:19.176Z,15.26
2019-01-23T10:37:21.128Z,15.27
2019-01-23T10:38:23.079Z,15.26
2019-01-23T10:39:25.144Z,15.28
2019-01-23T10:40:27.228Z,15.27
2019-01-23T10:41:29.254Z,15.26
2019-01-23T10:42:31.203Z,15.25
2019-01-23T10:43:35.447Z,15.25
2019-01-23T10:44:37.435Z,15.25
2019-01-23T10:45:39.379Z,15.24
2019-01-23T10:46:41.323Z,15.25
2019-01-23T10:47:43.286Z,15.25
2019-01-23T10:48:45.320Z,15.25
2019-01-23T10:49:47.319Z,15.25
2019-01-23T10:50:49.555Z,15.25
2019-01-23T10:51:51.512Z,15.23
2019-01-23T10:52:53.452Z,15.24
2019-01-23T10:53:55.423Z,15.25
2019-01-23T10:54:58.758Z,15.25
2019-01-23T10:56:00.813Z,15.24
2019-01-23T10:57:02.851Z,15.22
2019-01-23T10:58:04.876Z,15.22
2019-01-23T10:59:06.910Z,15.23
2019-01-23T11:00:08.979Z,15.22
2019-01-23T11:01:13.484Z,15.22
2019-01-23T11:02:15.059Z,15.22
2019-01-23T11:03:18.838Z,15.22
2019-01-23T11:04:20.815Z,15.22
2019-01-23T11:05:25.924Z,15.21
2019-01-23T11:06:27.925Z,15.21
2019-01-23T11:07:30.250Z,15.20
2019-01-23T11:08:32.194Z,15.20
2019-01-23T11:09:34.156Z,15.21
2019-01-23T11:10:36.236Z,15.20
2019-01-23T11:11:38.192Z,15.21
2019-01-23T11:12:40.147Z,15.21
2019-01-23T11:13:44.475Z,15.21
2019-01-23T11:14:46.436Z,15.20
2019-01-23T11:15:48.424Z,15.22
2019-01-23T11:16:50.489Z,15.21
2019-01-23T11:17:52.482Z,15.22
2019-01-23T11:18:56.746Z,15.22
2019-01-23T11:19:58.785Z,15.22
2019-01-23T11:21:00.814Z,15.21
2019-01-23T11:22:02.868Z,15.21
2019-01-23T11:23:04.892Z,15.21
2019-01-23T11:24:06.862Z,15.21
2019-01-23T11:25:08.888Z,15.22
2019-01-23T11:26:10.868Z,15.21
2019-01-23T11:27:14.431Z,15.21
2019-01-23T11:28:16.354Z,15.23
2019-01-23T11:29:18.311Z,15.23
2019-01-23T11:30:20.266Z,15.22
2019-01-23T11:31:22.242Z,15.23
2019-01-23T11:32:24.317Z,15.23
2019-01-23T11:33:26.367Z,15.25
2019-01-23T11:34:28.406Z,15.25
2019-01-23T11:35:30.881Z,15.26
2019-01-23T11:36:35.351Z,15.28
2019-01-23T11:37:40.580Z,15.28
2019-01-23T11:38:42.733Z,15.28
2019-01-23T11:39:44.758Z,15.29
2019-01-23T11:40:46.750Z,15.29
2019-01-23T11:41:48.758Z,15.30
2019-01-23T11:42:50.810Z,15.31
2019-01-23T11:43:52.871Z,15.32
2019-01-23T11:44:54.832Z,15.33
2019-01-23T11:45:56.868Z,15.33
2019-01-23T11:46:58.875Z,15.34
2019-01-23T11:48:00.906Z,15.35
2019-01-23T11:49:02.927Z,15.35
2019-01-23T11:50:07.834Z,15.36
2019-01-23T11:51:09.792Z,15.38
2019-01-23T11:52:11.791Z,15.38
2019-01-23T11:53:14.046Z,15.40
2019-01-23T11:54:17.674Z,15.40
2019-01-23T11:55:19.944Z,15.40
2019-01-23T11:56:21.913Z,15.40
2019-01-23T11:57:23.979Z,15.39
2019-01-23T11:58:26.021Z,15.40
2019-01-23T11:59:28.052Z,15.40
2019-01-23T12:00:34.366Z,15.40
2019-01-23T12:01:36.381Z,15.40
2019-01-23T12:02:38.358Z,15.41
2019-01-23T12:03:40.440Z,15.42
2019-01-23T12:04:42.515Z,15.42
2019-01-23T12:05:44.484Z,15.41
2019-01-23T12:06:46.550Z,15.42
2019-01-23T12:07:51.963Z,15.42
2019-01-23T12:08:54.019Z,15.41
2019-01-23T12:09:57.290Z,15.42
2019-01-23T12:10:59.344Z,15.41
2019-01-23T12:12:01.375Z,15.42
2019-01-23T12:13:05.203Z,15.42
2019-01-23T12:14:13.369Z,15.41
2019-01-23T12:15:16.600Z,15.42
2019-01-23T12:16:18.576Z,15.40
2019-01-23T12:17:23.366Z,15.42
2019-01-23T12:18:25.405Z,15.42
2019-01-23T12:19:27.434Z,15.42
2019-01-23T12:20:32.116Z,15.41
2019-01-23T12:21:35.447Z,15.42
2019-01-23T12:22:37.411Z,15.41
2019-01-23T12:23:39.468Z,15.41
2019-01-23T12:24:41.441Z,15.41
2019-01-23T12:25:43.462Z,15.41
2019-01-23T12:26:45.415Z,15.40
2019-01-23T12:27:47.425Z,15.41
2019-01-23T12:28:53.550Z,15.41
2019-01-23T12:29:55.595Z,15.39
2019-01-23T12:31:00.430Z,15.39
2019-01-23T12:32:01.763Z,15.41
2019-01-23T12:33:03.718Z,15.39
2019-01-23T12:34:08.642Z,15.39
2019-01-23T12:35:10.627Z,15.38
2019-01-23T12:36:12.578Z,15.38
2019-01-23T12:37:14.555Z,15.38
2019-01-23T12:38:16.571Z,15.38
2019-01-23T12:39:18.557Z,15.38
2019-01-23T12:40:20.588Z,15.37
2019-01-23T12:41:22.617Z,15.36
2019-01-23T12:42:24.573Z,15.37
2019-01-23T12:43:26.539Z,15.36
2019-01-23T12:44:28.523Z,15.37
2019-01-23T12:45:30.536Z,15.37
2019-01-23T12:46:32.547Z,15.36
2019-01-23T12:47:34.503Z,15.35
2019-01-23T12:48:36.484Z,15.36
2019-01-23T12:49:38.487Z,15.34
2019-01-23T12:50:40.532Z,15.35
2019-01-23T12:51:44.775Z,15.35
2019-01-23T12:52:46.176Z,15.35
2019-01-23T12:53:48.166Z,15.34
2019-01-23T12:54:50.230Z,15.34
2019-01-23T12:55:52.182Z,15.34
2019-01-23T12:56:54.148Z,15.35
2019-01-23T12:57:56.150Z,15.34
2019-01-23T12:58:58.233Z,15.34
2019-01-23T13:00:05.094Z,15.34
2019-01-23T13:01:03.934Z,15.33
2019-01-23T13:02:09.719Z,15.34
2019-01-23T13:03:11.239Z,15.32
2019-01-23T13:04:13.234Z,15.32
2019-01-23T13:05:15.233Z,15.33
2019-01-23T13:06:17.187Z,15.32
2019-01-23T13:07:19.229Z,15.32
2019-01-23T13:08:21.170Z,15.31
2019-01-23T13:09:23.131Z,15.31
2019-01-23T13:10:25.127Z,15.30
2019-01-23T13:11:27.077Z,15.30
2019-01-23T13:12:29.116Z,15.30
2019-01-23T13:13:31.063Z,15.30
2019-01-23T13:14:33.007Z,15.31
2019-01-23T13:15:35.030Z,15.30
2019-01-23T13:16:37.061Z,15.30
2019-01-23T13:17:40.841Z,15.30
2019-01-23T13:18:42.801Z,15.30
2019-01-23T13:19:44.871Z,15.31
2019-01-23T13:20:46.872Z,15.30
2019-01-23T13:21:50.104Z,15.31